sensor_id;sensor_type;location;lat;lon;timestamp;P1;durP1;ratioP1;P2;durP2;ratioP2
61096;SDS011;46977;50.936;6.908;2024-02-21T03:50:44;7.85;;;2.92;;
61096;SDS011;46977;50.936;6.908;2024-02-21T03:53:47;10.85;;;3.25;;
61096;SDS011;46977;50.936;6.908;2024-02-21T03:56:49;13.63;;;3.55;;
61096;SDS011;46977;50.936;6.908;2024-02-21T03:59:51;8.45;;;3.15;;
61096;SDS011;46977;50.936;6.908;2024-02-21T04:02:53;11.65;;;3.83;;
61096;SDS011;46977;50.936;6.908;2024-02-21T04:15:10;8.63;;;2.72;;
61096;SDS011;46977;50.936;6.908;2024-02-21T04:18:12;13.35;;;3.10;;
61096;SDS011;46977;50.936;6.908;2024-02-21T04:21:16;10.32;;;3.00;;
61096;SDS011;46977;50.936;6.908;2024-02-21T04:24:18;8.43;;;2.67;;
61096;SDS011;46977;50.936;6.908;2024-02-21T04:27:21;14.68;;;2.65;;
61096;SDS011;46977;50.936;6.908;2024-02-21T04:30:24;11.40;;;2.88;;
61096;SDS011;46977;50.936;6.908;2024-02-21T04:33:27;9.55;;;3.30;;
61096;SDS011;46977;50.936;6.908;2024-02-21T04:36:29;9.88;;;3.35;;
61096;SDS011;46977;50.936;6.908;2024-02-21T04:39:33;8.40;;;3.00;;
61096;SDS011;46977;50.936;6.908;2024-02-21T04:42:35;9.27;;;3.30;;
61096;SDS011;46977;50.936;6.908;2024-02-21T04:45:39;6.60;;;2.83;;
61096;SDS011;46977;50.936;6.908;2024-02-21T04:48:41;10.45;;;3.22;;
61096;SDS011;46977;50.936;6.908;2024-02-21T04:51:43;9.95;;;3.47;;
61096;SDS011;46977;50.936;6.908;2024-02-21T04:54:46;8.65;;;3.10;;
61096;SDS011;46977;50.936;6.908;2024-02-21T04:57:48;13.65;;;3.35;;
61096;SDS011;46977;50.936;6.908;2024-02-21T05:00:52;8.65;;;2.83;;
61096;SDS011;46977;50.936;6.908;2024-02-21T05:03:56;12.15;;;3.92;;
61096;SDS011;46977;50.936;6.908;2024-02-21T05:06:59;9.50;;;3.40;;
61096;SDS011;46977;50.936;6.908;2024-02-21T05:10:06;8.90;;;2.95;;
61096;SDS011;46977;50.936;6.908;2024-02-21T05:13:09;10.00;;;2.72;;
61096;SDS011;46977;50.936;6.908;2024-02-21T05:16:13;7.75;;;3.92;;
61096;SDS011;46977;50.936;6.908;2024-02-21T05:19:16;9.20;;;3.55;;
61096;SDS011;46977;50.936;6.908;2024-02-21T05:22:18;11.73;;;3.22;;
61096;SDS011;46977;50.936;6.908;2024-02-21T05:25:21;12.20;;;3.17;;
61096;SDS011;46977;50.936;6.908;2024-02-21T05:28:23;7.47;;;2.70;;
61096;SDS011;46977;50.936;6.908;2024-02-21T05:31:27;9.18;;;4.15;;
61096;SDS011;46977;50.936;6.908;2024-02-21T05:34:48;6.93;;;2.70;;
61096;SDS011;46977;50.936;6.908;2024-02-21T05:37:50;5.88;;;2.67;;
61096;SDS011;46977;50.936;6.908;2024-02-21T05:40:54;9.27;;;3.38;;
61096;SDS011;46977;50.936;6.908;2024-02-21T05:43:57;8.23;;;2.70;;
61096;SDS011;46977;50.936;6.908;2024-02-21T05:47:00;8.55;;;3.30;;
61096;SDS011;46977;50.936;6.908;2024-02-21T05:50:03;7.70;;;2.83;;
61096;SDS011;46977;50.936;6.908;2024-02-21T05:53:06;6.45;;;3.22;;
61096;SDS011;46977;50.936;6.908;2024-02-21T05:56:09;5.00;;;2.38;;
61096;SDS011;46977;50.936;6.908;2024-02-21T05:59:12;11.52;;;2.80;;
61096;SDS011;46977;50.936;6.908;2024-02-21T06:02:16;7.45;;;2.53;;
61096;SDS011;46977;50.936;6.908;2024-02-21T06:05:19;12.40;;;3.85;;
61096;SDS011;46977;50.936;6.908;2024-02-21T06:08:21;11.93;;;3.00;;
61096;SDS011;46977;50.936;6.908;2024-02-21T06:11:23;8.73;;;2.85;;
61096;SDS011;46977;50.936;6.908;2024-02-21T06:14:26;6.85;;;2.80;;
61096;SDS011;46977;50.936;6.908;2024-02-21T06:17:30;7.68;;;2.58;;
61096;SDS011;46977;50.936;6.908;2024-02-21T06:20:32;8.45;;;2.58;;
61096;SDS011;46977;50.936;6.908;2024-02-21T06:23:36;11.82;;;3.22;;
61096;SDS011;46977;50.936;6.908;2024-02-21T06:26:41;6.35;;;3.35;;
61096;SDS011;46977;50.936;6.908;2024-02-21T06:29:46;9.43;;;2.90;;
61096;SDS011;46977;50.936;6.908;2024-02-21T06:32:50;13.77;;;3.78;;
61096;SDS011;46977;50.936;6.908;2024-02-21T06:35:52;10.43;;;2.67;;
61096;SDS011;46977;50.936;6.908;2024-02-21T06:38:55;7.57;;;2.65;;
61096;SDS011;46977;50.936;6.908;2024-02-21T06:41:57;11.77;;;3.17;;
61096;SDS011;46977;50.936;6.908;2024-02-21T06:45:04;10.57;;;3.88;;
61096;SDS011;46977;50.936;6.908;2024-02-21T06:48:08;13.65;;;4.85;;
61096;SDS011;46977;50.936;6.908;2024-02-21T06:51:11;9.25;;;3.30;;
61096;SDS011;46977;50.936;6.908;2024-02-21T06:54:13;10.20;;;3.97;;
61096;SDS011;46977;50.936;6.908;2024-02-21T06:57:16;12.93;;;3.15;;
61096;SDS011;46977;50.936;6.908;2024-02-21T07:00:18;8.32;;;3.10;;
61096;SDS011;46977;50.936;6.908;2024-02-21T07:03:24;11.45;;;3.65;;
61096;SDS011;46977;50.936;6.908;2024-02-21T07:06:30;7.50;;;3.20;;
61096;SDS011;46977;50.936;6.908;2024-02-21T07:09:37;9.20;;;5.13;;
61096;SDS011;46977;50.936;6.908;2024-02-21T07:12:40;12.75;;;4.03;;
61096;SDS011;46977;50.936;6.908;2024-02-21T07:15:45;9.45;;;3.58;;
61096;SDS011;46977;50.936;6.908;2024-02-21T07:18:49;10.98;;;3.67;;
61096;SDS011;46977;50.936;6.908;2024-02-21T07:21:51;11.63;;;4.10;;
61096;SDS011;46977;50.936;6.908;2024-02-21T07:24:56;8.02;;;3.90;;
61096;SDS011;46977;50.936;6.908;2024-02-21T07:27:58;10.70;;;3.78;;
61096;SDS011;46977;50.936;6.908;2024-02-21T07:31:01;8.18;;;3.22;;
61096;SDS011;46977;50.936;6.908;2024-02-21T07:34:05;8.10;;;3.42;;
61096;SDS011;46977;50.936;6.908;2024-02-21T07:37:07;7.25;;;2.80;;
61096;SDS011;46977;50.936;6.908;2024-02-21T07:40:12;10.27;;;3.28;;
61096;SDS011;46977;50.936;6.908;2024-02-21T07:43:14;7.93;;;3.05;;
61096;SDS011;46977;50.936;6.908;2024-02-21T07:46:17;7.15;;;3.90;;
61096;SDS011;46977;50.936;6.908;2024-02-21T07:49:21;8.05;;;2.38;;
61096;SDS011;46977;50.936;6.908;2024-02-21T07:52:23;9.68;;;3.30;;
61096;SDS011;46977;50.936;6.908;2024-02-21T07:55:26;8.23;;;3.05;;
61096;SDS011;46977;50.936;6.908;2024-02-21T07:58:29;8.48;;;3.25;;
61096;SDS011;46977;50.936;6.908;2024-02-21T08:01:31;10.70;;;3.15;;
61096;SDS011;46977;50.936;6.908;2024-02-21T08:04:35;7.05;;;2.95;;
61096;SDS011;46977;50.936;6.908;2024-02-21T08:07:37;8.10;;;2.92;;
61096;SDS011;46977;50.936;6.908;2024-02-21T08:10:40;9.27;;;2.65;;
61096;SDS011;46977;50.936;6.908;2024-02-21T08:13:42;8.25;;;2.47;;
61096;SDS011;46977;50.936;6.908;2024-02-21T08:16:44;9.35;;;2.60;;
61096;SDS011;46977;50.936;6.908;2024-02-21T08:19:48;6.50;;;2.30;;
61096;SDS011;46977;50.936;6.908;2024-02-21T08:22:51;10.00;;;2.53;;
61096;SDS011;46977;50.936;6.908;2024-02-21T08:25:53;7.38;;;1.92;;
61096;SDS011;46977;50.936;6.908;2024-02-21T08:28:58;5.28;;;2.10;;
61096;SDS011;46977;50.936;6.908;2024-02-21T08:32:03;8.00;;;2.10;;
61096;SDS011;46977;50.936;6.908;2024-02-21T08:35:08;8.52;;;2.63;;
61096;SDS011;46977;50.936;6.908;2024-02-21T08:38:10;5.63;;;2.22;;
61096;SDS011;46977;50.936;6.908;2024-02-21T08:41:13;6.32;;;2.25;;
61096;SDS011;46977;50.936;6.908;2024-02-21T08:44:17;9.55;;;2.33;;
61096;SDS011;46977;50.936;6.908;2024-02-21T08:47:19;8.85;;;2.08;;
61096;SDS011;46977;50.936;6.908;2024-02-21T08:50:23;9.20;;;3.15;;
61096;SDS011;46977;50.936;6.908;2024-02-21T08:53:30;5.00;;;2.05;;
61096;SDS011;46977;50.936;6.908;2024-02-21T08:56:33;7.43;;;2.22;;
61096;SDS011;46977;50.936;6.908;2024-02-21T08:59:37;5.43;;;2.33;;
61096;SDS011;46977;50.936;6.908;2024-02-21T09:02:39;10.43;;;2.50;;
61096;SDS011;46977;50.936;6.908;2024-02-21T09:05:44;7.10;;;1.83;;
61096;SDS011;46977;50.936;6.908;2024-02-21T09:08:46;8.02;;;2.00;;
61096;SDS011;46977;50.936;6.908;2024-02-21T09:11:48;11.10;;;2.75;;
61096;SDS011;46977;50.936;6.908;2024-02-21T09:15:00;7.05;;;2.53;;
61096;SDS011;46977;50.936;6.908;2024-02-21T09:18:02;7.57;;;3.33;;
61096;SDS011;46977;50.936;6.908;2024-02-21T09:21:06;4.82;;;1.75;;
61096;SDS011;46977;50.936;6.908;2024-02-21T09:24:10;9.50;;;2.65;;
61096;SDS011;46977;50.936;6.908;2024-02-21T09:27:12;7.18;;;2.42;;
61096;SDS011;46977;50.936;6.908;2024-02-21T09:30:14;9.35;;;3.17;;
61096;SDS011;46977;50.936;6.908;2024-02-21T09:33:17;6.28;;;1.60;;
61096;SDS011;46977;50.936;6.908;2024-02-21T09:36:34;6.35;;;2.50;;
61096;SDS011;46977;50.936;6.908;2024-02-21T09:39:36;12.60;;;2.72;;
61096;SDS011;46977;50.936;6.908;2024-02-21T09:42:39;12.75;;;2.90;;
61096;SDS011;46977;50.936;6.908;2024-02-21T09:45:42;11.32;;;2.30;;
61096;SDS011;46977;50.936;6.908;2024-02-21T09:48:53;8.30;;;3.00;;
61096;SDS011;46977;50.936;6.908;2024-02-21T09:52:07;9.27;;;2.10;;
61096;SDS011;46977;50.936;6.908;2024-02-21T09:55:09;6.65;;;2.42;;
61096;SDS011;46977;50.936;6.908;2024-02-21T09:58:13;10.40;;;2.28;;
61096;SDS011;46977;50.936;6.908;2024-02-21T10:01:16;13.25;;;2.53;;
61096;SDS011;46977;50.936;6.908;2024-02-21T10:04:34;8.43;;;2.25;;
61096;SDS011;46977;50.936;6.908;2024-02-21T10:07:39;6.20;;;2.20;;
61096;SDS011;46977;50.936;6.908;2024-02-21T10:10:42;6.55;;;2.08;;
61096;SDS011;46977;50.936;6.908;2024-02-21T10:13:45;6.78;;;2.03;;
61096;SDS011;46977;50.936;6.908;2024-02-21T10:16:49;8.70;;;2.60;;
61096;SDS011;46977;50.936;6.908;2024-02-21T10:20:08;8.35;;;1.88;;
61096;SDS011;46977;50.936;6.908;2024-02-21T10:23:13;7.38;;;1.90;;
61096;SDS011;46977;50.936;6.908;2024-02-21T10:26:15;5.07;;;1.48;;
61096;SDS011;46977;50.936;6.908;2024-02-21T10:29:18;4.93;;;1.33;;
61096;SDS011;46977;50.936;6.908;2024-02-21T10:32:20;8.27;;;2.22;;
61096;SDS011;46977;50.936;6.908;2024-02-21T10:35:27;4.72;;;1.58;;
61096;SDS011;46977;50.936;6.908;2024-02-21T10:38:32;5.30;;;2.67;;
61096;SDS011;46977;50.936;6.908;2024-02-21T10:41:35;6.90;;;1.73;;
61096;SDS011;46977;50.936;6.908;2024-02-21T10:44:39;7.32;;;1.95;;
61096;SDS011;46977;50.936;6.908;2024-02-21T10:47:42;6.97;;;1.73;;
61096;SDS011;46977;50.936;6.908;2024-02-21T10:50:53;6.50;;;1.65;;
61096;SDS011;46977;50.936;6.908;2024-02-21T10:54:05;6.35;;;1.38;;
61096;SDS011;46977;50.936;6.908;2024-02-21T10:57:15;5.72;;;1.60;;
61096;SDS011;46977;50.936;6.908;2024-02-21T11:00:18;7.50;;;1.40;;
61096;SDS011;46977;50.936;6.908;2024-02-21T11:03:21;3.90;;;1.80;;
61096;SDS011;46977;50.936;6.908;2024-02-21T11:06:23;3.75;;;1.45;;
61096;SDS011;46977;50.936;6.908;2024-02-21T11:09:31;5.85;;;1.50;;
61096;SDS011;46977;50.936;6.908;2024-02-21T11:12:37;2.75;;;1.55;;
61096;SDS011;46977;50.936;6.908;2024-02-21T11:15:39;5.07;;;1.63;;
61096;SDS011;46977;50.936;6.908;2024-02-21T11:18:41;4.80;;;2.15;;
61096;SDS011;46977;50.936;6.908;2024-02-21T11:21:44;4.38;;;1.50;;
61096;SDS011;46977;50.936;6.908;2024-02-21T11:24:47;7.60;;;1.75;;
61096;SDS011;46977;50.936;6.908;2024-02-21T11:27:50;7.65;;;1.70;;
61096;SDS011;46977;50.936;6.908;2024-02-21T11:30:52;3.53;;;1.58;;
61096;SDS011;46977;50.936;6.908;2024-02-21T11:33:56;3.35;;;1.10;;
61096;SDS011;46977;50.936;6.908;2024-02-21T11:37:00;8.52;;;1.73;;
61096;SDS011;46977;50.936;6.908;2024-02-21T11:40:04;3.55;;;1.70;;
61096;SDS011;46977;50.936;6.908;2024-02-21T11:43:11;5.95;;;1.23;;
61096;SDS011;46977;50.936;6.908;2024-02-21T11:46:13;6.13;;;1.20;;
61096;SDS011;46977;50.936;6.908;2024-02-21T11:49:16;6.93;;;1.50;;
61096;SDS011;46977;50.936;6.908;2024-02-21T11:52:18;4.30;;;1.55;;
61096;SDS011;46977;50.936;6.908;2024-02-21T11:55:25;7.35;;;1.30;;
61096;SDS011;46977;50.936;6.908;2024-02-21T11:58:27;7.53;;;1.27;;
61096;SDS011;46977;50.936;6.908;2024-02-21T12:01:30;4.25;;;2.08;;
61096;SDS011;46977;50.936;6.908;2024-02-21T12:04:32;8.40;;;1.90;;
61096;SDS011;46977;50.936;6.908;2024-02-21T12:07:36;7.43;;;1.55;;
61096;SDS011;46977;50.936;6.908;2024-02-21T12:10:41;2.47;;;1.38;;
61096;SDS011;46977;50.936;6.908;2024-02-21T12:13:44;4.80;;;1.30;;
61096;SDS011;46977;50.936;6.908;2024-02-21T12:16:46;4.93;;;1.60;;
61096;SDS011;46977;50.936;6.908;2024-02-21T12:19:50;5.50;;;1.63;;
61096;SDS011;46977;50.936;6.908;2024-02-21T12:22:55;6.13;;;1.63;;
61096;SDS011;46977;50.936;6.908;2024-02-21T12:26:00;6.57;;;1.45;;
61096;SDS011;46977;50.936;6.908;2024-02-21T12:29:02;3.65;;;1.20;;
61096;SDS011;46977;50.936;6.908;2024-02-21T12:32:05;5.53;;;1.50;;
61096;SDS011;46977;50.936;6.908;2024-02-21T12:35:07;5.15;;;1.50;;
61096;SDS011;46977;50.936;6.908;2024-02-21T12:38:10;10.15;;;1.80;;
61096;SDS011;46977;50.936;6.908;2024-02-21T12:41:19;4.63;;;1.60;;
61096;SDS011;46977;50.936;6.908;2024-02-21T12:44:21;3.65;;;1.50;;
61096;SDS011;46977;50.936;6.908;2024-02-21T12:47:23;9.65;;;1.75;;
61096;SDS011;46977;50.936;6.908;2024-02-21T12:50:28;8.00;;;2.38;;
61096;SDS011;46977;50.936;6.908;2024-02-21T12:53:30;6.10;;;1.67;;
61096;SDS011;46977;50.936;6.908;2024-02-21T12:56:36;7.00;;;1.98;;
61096;SDS011;46977;50.936;6.908;2024-02-21T12:59:39;8.68;;;2.22;;
61096;SDS011;46977;50.936;6.908;2024-02-21T13:02:41;3.97;;;1.85;;
61096;SDS011;46977;50.936;6.908;2024-02-21T13:05:44;6.63;;;2.05;;
61096;SDS011;46977;50.936;6.908;2024-02-21T13:08:47;6.65;;;1.63;;
61096;SDS011;46977;50.936;6.908;2024-02-21T13:11:50;5.93;;;1.73;;
61096;SDS011;46977;50.936;6.908;2024-02-21T13:14:53;4.07;;;1.10;;
61096;SDS011;46977;50.936;6.908;2024-02-21T13:17:56;5.45;;;1.60;;
61096;SDS011;46977;50.936;6.908;2024-02-21T13:20:59;5.38;;;1.45;;
61096;SDS011;46977;50.936;6.908;2024-02-21T13:24:01;6.25;;;1.50;;
61096;SDS011;46977;50.936;6.908;2024-02-21T13:27:05;10.45;;;6.00;;
61096;SDS011;46977;50.936;6.908;2024-02-21T13:30:08;5.22;;;1.85;;
61096;SDS011;46977;50.936;6.908;2024-02-21T13:33:11;4.20;;;1.80;;
61096;SDS011;46977;50.936;6.908;2024-02-21T13:36:15;6.78;;;1.40;;
61096;SDS011;46977;50.936;6.908;2024-02-21T13:39:17;4.60;;;1.45;;
61096;SDS011;46977;50.936;6.908;2024-02-21T13:42:22;5.13;;;1.52;;
61096;SDS011;46977;50.936;6.908;2024-02-21T13:45:25;5.30;;;1.52;;
61096;SDS011;46977;50.936;6.908;2024-02-21T13:48:28;5.75;;;1.55;;
61096;SDS011;46977;50.936;6.908;2024-02-21T13:51:31;4.00;;;1.83;;
61096;SDS011;46977;50.936;6.908;2024-02-21T13:54:34;4.43;;;1.60;;
61096;SDS011;46977;50.936;6.908;2024-02-21T13:57:38;4.50;;;1.42;;
61096;SDS011;46977;50.936;6.908;2024-02-21T14:00:40;9.05;;;2.78;;
61096;SDS011;46977;50.936;6.908;2024-02-21T14:03:44;5.00;;;1.35;;
61096;SDS011;46977;50.936;6.908;2024-02-21T14:06:50;4.72;;;1.50;;
61096;SDS011;46977;50.936;6.908;2024-02-21T14:10:17;5.90;;;2.00;;
61096;SDS011;46977;50.936;6.908;2024-02-21T14:53:02;10.13;;;1.73;;
61096;SDS011;46977;50.936;6.908;2024-02-21T14:56:05;6.05;;;1.60;;
61096;SDS011;46977;50.936;6.908;2024-02-21T14:59:14;2.53;;;1.23;;
61096;SDS011;46977;50.936;6.908;2024-02-21T15:02:33;2.60;;;1.02;;
61096;SDS011;46977;50.936;6.908;2024-02-21T15:05:36;5.38;;;1.27;;
61096;SDS011;46977;50.936;6.908;2024-02-21T15:08:42;6.20;;;1.60;;
61096;SDS011;46977;50.936;6.908;2024-02-21T15:11:45;8.15;;;1.73;;
61096;SDS011;46977;50.936;6.908;2024-02-21T15:14:48;6.32;;;1.02;;
61096;SDS011;46977;50.936;6.908;2024-02-21T15:17:52;4.13;;;1.45;;
61096;SDS011;46977;50.936;6.908;2024-02-21T15:20:55;3.20;;;0.98;;
61096;SDS011;46977;50.936;6.908;2024-02-21T15:23:59;2.42;;;0.75;;
61096;SDS011;46977;50.936;6.908;2024-02-21T15:27:03;2.85;;;0.80;;
61096;SDS011;46977;50.936;6.908;2024-02-21T15:30:06;1.67;;;1.02;;
61096;SDS011;46977;50.936;6.908;2024-02-21T15:33:10;2.80;;;0.80;;
61096;SDS011;46977;50.936;6.908;2024-02-21T15:36:12;4.55;;;1.08;;
61096;SDS011;46977;50.936;6.908;2024-02-21T15:39:16;1.80;;;0.90;;
61096;SDS011;46977;50.936;6.908;2024-02-21T15:42:18;3.25;;;0.98;;
61096;SDS011;46977;50.936;6.908;2024-02-21T15:45:21;4.95;;;1.38;;
61096;SDS011;46977;50.936;6.908;2024-02-21T15:48:25;3.00;;;0.75;;
61096;SDS011;46977;50.936;6.908;2024-02-21T15:51:28;1.98;;;1.00;;
61096;SDS011;46977;50.936;6.908;2024-02-21T15:54:33;4.90;;;0.82;;
61096;SDS011;46977;50.936;6.908;2024-02-21T15:57:37;4.50;;;0.93;;
61096;SDS011;46977;50.936;6.908;2024-02-21T16:00:40;2.83;;;0.85;;
61096;SDS011;46977;50.936;6.908;2024-02-21T16:03:42;4.90;;;0.70;;
61096;SDS011;46977;50.936;6.908;2024-02-21T16:06:45;3.80;;;0.80;;
61096;SDS011;46977;50.936;6.908;2024-02-21T16:09:55;4.70;;;0.75;;
61096;SDS011;46977;50.936;6.908;2024-02-21T16:12:57;2.95;;;0.90;;
61096;SDS011;46977;50.936;6.908;2024-02-21T16:16:00;5.13;;;1.15;;
61096;SDS011;46977;50.936;6.908;2024-02-21T16:19:03;3.28;;;0.73;;
61096;SDS011;46977;50.936;6.908;2024-02-21T16:22:09;5.82;;;0.93;;
61096;SDS011;46977;50.936;6.908;2024-02-21T16:25:13;2.15;;;0.75;;
61096;SDS011;46977;50.936;6.908;2024-02-21T16:28:15;3.22;;;0.80;;
61096;SDS011;46977;50.936;6.908;2024-02-21T16:31:18;1.17;;;0.70;;
61096;SDS011;46977;50.936;6.908;2024-02-21T16:34:20;5.18;;;2.28;;
61096;SDS011;46977;50.936;6.908;2024-02-21T16:37:23;1.67;;;0.80;;
61096;SDS011;46977;50.936;6.908;2024-02-21T16:40:27;4.28;;;0.98;;
61096;SDS011;46977;50.936;6.908;2024-02-21T16:43:29;5.72;;;1.85;;
61096;SDS011;46977;50.936;6.908;2024-02-21T16:46:31;4.05;;;1.30;;
61096;SDS011;46977;50.936;6.908;2024-02-21T16:49:34;4.55;;;1.40;;
61096;SDS011;46977;50.936;6.908;2024-02-21T16:52:38;4.35;;;1.20;;
61096;SDS011;46977;50.936;6.908;2024-02-21T16:55:43;4.10;;;1.30;;
61096;SDS011;46977;50.936;6.908;2024-02-21T16:58:45;3.35;;;1.40;;
61096;SDS011;46977;50.936;6.908;2024-02-21T17:01:48;3.30;;;1.17;;
61096;SDS011;46977;50.936;6.908;2024-02-21T17:04:53;2.92;;;1.30;;
61096;SDS011;46977;50.936;6.908;2024-02-21T17:07:56;3.28;;;1.27;;
61096;SDS011;46977;50.936;6.908;2024-02-21T17:11:00;3.05;;;1.60;;
61096;SDS011;46977;50.936;6.908;2024-02-21T17:14:06;6.22;;;1.60;;
61096;SDS011;46977;50.936;6.908;2024-02-21T17:17:11;4.10;;;1.15;;
61096;SDS011;46977;50.936;6.908;2024-02-21T17:20:15;5.70;;;2.00;;
61096;SDS011;46977;50.936;6.908;2024-02-21T17:23:18;2.67;;;1.40;;
61096;SDS011;46977;50.936;6.908;2024-02-21T17:26:22;6.15;;;1.60;;
61096;SDS011;46977;50.936;6.908;2024-02-21T17:29:26;3.25;;;1.83;;
61096;SDS011;46977;50.936;6.908;2024-02-21T17:32:31;8.18;;;1.88;;
61096;SDS011;46977;50.936;6.908;2024-02-21T17:35:33;5.13;;;1.50;;
61096;SDS011;46977;50.936;6.908;2024-02-21T17:38:36;5.72;;;1.80;;
61096;SDS011;46977;50.936;6.908;2024-02-21T17:41:40;7.75;;;1.80;;
61096;SDS011;46977;50.936;6.908;2024-02-21T17:44:43;7.82;;;1.60;;
61096;SDS011;46977;50.936;6.908;2024-02-21T17:47:50;7.15;;;1.48;;
61096;SDS011;46977;50.936;6.908;2024-02-21T17:50:53;5.82;;;1.52;;
61096;SDS011;46977;50.936;6.908;2024-02-21T17:53:55;5.70;;;1.50;;
61096;SDS011;46977;50.936;6.908;2024-02-21T17:57:00;7.68;;;1.98;;
61096;SDS011;46977;50.936;6.908;2024-02-21T18:00:05;3.83;;;1.40;;
61096;SDS011;46977;50.936;6.908;2024-02-21T18:03:15;4.68;;;1.70;;
61096;SDS011;46977;50.936;6.908;2024-02-21T18:06:17;4.45;;;1.70;;
61096;SDS011;46977;50.936;6.908;2024-02-21T18:09:22;5.47;;;2.03;;
61096;SDS011;46977;50.936;6.908;2024-02-21T18:12:26;3.95;;;2.30;;
61096;SDS011;46977;50.936;6.908;2024-02-21T18:15:28;5.93;;;2.47;;
61096;SDS011;46977;50.936;6.908;2024-02-21T18:18:30;5.60;;;2.40;;
61096;SDS011;46977;50.936;6.908;2024-02-21T18:21:33;5.95;;;2.10;;
61096;SDS011;46977;50.936;6.908;2024-02-21T18:24:35;4.78;;;1.40;;
61096;SDS011;46977;50.936;6.908;2024-02-21T18:27:39;4.32;;;1.77;;
61096;SDS011;46977;50.936;6.908;2024-02-21T18:30:44;3.78;;;1.65;;
61096;SDS011;46977;50.936;6.908;2024-02-21T18:33:49;2.83;;;1.60;;
61096;SDS011;46977;50.936;6.908;2024-02-21T18:36:52;7.03;;;2.08;;
61096;SDS011;46977;50.936;6.908;2024-02-21T18:39:55;6.45;;;1.45;;
61096;SDS011;46977;50.936;6.908;2024-02-21T18:42:59;6.25;;;2.80;;
61096;SDS011;46977;50.936;6.908;2024-02-21T18:46:02;7.35;;;1.60;;
61096;SDS011;46977;50.936;6.908;2024-02-21T18:49:04;7.40;;;1.95;;
61096;SDS011;46977;50.936;6.908;2024-02-21T18:52:07;7.10;;;3.15;;
61096;SDS011;46977;50.936;6.908;2024-02-21T18:55:12;5.07;;;2.58;;
61096;SDS011;46977;50.936;6.908;2024-02-21T18:58:16;10.15;;;2.95;;
61096;SDS011;46977;50.936;6.908;2024-02-21T19:01:20;6.25;;;2.45;;
61096;SDS011;46977;50.936;6.908;2024-02-21T19:04:23;7.25;;;2.13;;
61096;SDS011;46977;50.936;6.908;2024-02-21T19:07:26;5.55;;;2.95;;
61096;SDS011;46977;50.936;6.908;2024-02-21T19:10:31;3.50;;;2.10;;
61096;SDS011;46977;50.936;6.908;2024-02-21T19:13:34;7.63;;;2.50;;
61096;SDS011;46977;50.936;6.908;2024-02-21T19:16:37;6.40;;;2.50;;
61096;SDS011;46977;50.936;6.908;2024-02-21T19:19:39;7.10;;;2.10;;
61096;SDS011;46977;50.936;6.908;2024-02-21T19:22:44;8.10;;;3.72;;
61096;SDS011;46977;50.936;6.908;2024-02-21T19:25:49;6.32;;;2.60;;
61096;SDS011;46977;50.936;6.908;2024-02-21T19:28:53;8.23;;;3.72;;
61096;SDS011;46977;50.936;6.908;2024-02-21T19:31:55;6.07;;;2.50;;
61096;SDS011;46977;50.936;6.908;2024-02-21T19:34:58;7.15;;;3.05;;
61096;SDS011;46977;50.936;6.908;2024-02-21T19:38:03;5.65;;;2.60;;
61096;SDS011;46977;50.936;6.908;2024-02-21T19:41:12;6.05;;;2.50;;
61096;SDS011;46977;50.936;6.908;2024-02-21T19:44:15;7.18;;;2.95;;
61096;SDS011;46977;50.936;6.908;2024-02-21T19:47:19;8.48;;;2.85;;
61096;SDS011;46977;50.936;6.908;2024-02-21T19:50:21;9.85;;;3.00;;
61096;SDS011;46977;50.936;6.908;2024-02-21T19:53:24;5.97;;;3.15;;
61096;SDS011;46977;50.936;6.908;2024-02-21T19:56:29;5.80;;;2.80;;
61096;SDS011;46977;50.936;6.908;2024-02-21T19:59:33;4.03;;;2.40;;
61096;SDS011;46977;50.936;6.908;2024-02-21T20:02:37;6.78;;;2.47;;
61096;SDS011;46977;50.936;6.908;2024-02-21T20:05:39;5.57;;;2.53;;
61096;SDS011;46977;50.936;6.908;2024-02-21T20:08:45;6.15;;;2.95;;
61096;SDS011;46977;50.936;6.908;2024-02-21T20:11:49;4.90;;;2.60;;
61096;SDS011;46977;50.936;6.908;2024-02-21T20:14:54;6.80;;;2.92;;
61096;SDS011;46977;50.936;6.908;2024-02-21T20:17:57;6.78;;;3.03;;
61096;SDS011;46977;50.936;6.908;2024-02-21T20:21:01;6.10;;;2.53;;
61096;SDS011;46977;50.936;6.908;2024-02-21T20:24:04;5.45;;;2.70;;
61096;SDS011;46977;50.936;6.908;2024-02-21T20:27:07;4.85;;;2.33;;
61096;SDS011;46977;50.936;6.908;2024-02-21T20:30:11;9.05;;;3.22;;
61096;SDS011;46977;50.936;6.908;2024-02-21T20:33:15;4.95;;;2.20;;
61096;SDS011;46977;50.936;6.908;2024-02-21T20:36:18;5.13;;;2.75;;
61096;SDS011;46977;50.936;6.908;2024-02-21T20:39:20;8.57;;;2.20;;
61096;SDS011;46977;50.936;6.908;2024-02-21T20:42:23;5.13;;;2.40;;
61096;SDS011;46977;50.936;6.908;2024-02-21T20:45:27;2.38;;;1.73;;
61096;SDS011;46977;50.936;6.908;2024-02-21T20:48:30;4.60;;;1.80;;
61096;SDS011;46977;50.936;6.908;2024-02-21T20:51:32;5.78;;;2.10;;
61096;SDS011;46977;50.936;6.908;2024-02-21T20:54:35;3.40;;;1.95;;
61096;SDS011;46977;50.936;6.908;2024-02-21T20:57:37;3.35;;;2.20;;
61096;SDS011;46977;50.936;6.908;2024-02-21T21:00:42;4.00;;;2.45;;
61096;SDS011;46977;50.936;6.908;2024-02-21T21:03:45;3.28;;;1.70;;
61096;SDS011;46977;50.936;6.908;2024-02-21T21:06:47;2.97;;;1.50;;
61096;SDS011;46977;50.936;6.908;2024-02-21T21:09:49;2.20;;;1.48;;
61096;SDS011;46977;50.936;6.908;2024-02-21T21:12:51;6.07;;;1.88;;
61096;SDS011;46977;50.936;6.908;2024-02-21T21:15:55;2.20;;;1.40;;
61096;SDS011;46977;50.936;6.908;2024-02-21T21:18:58;7.72;;;1.70;;
61096;SDS011;46977;50.936;6.908;2024-02-21T21:22:00;2.30;;;1.60;;
61096;SDS011;46977;50.936;6.908;2024-02-21T21:25:03;4.53;;;1.88;;
61096;SDS011;46977;50.936;6.908;2024-02-21T21:28:06;2.88;;;1.27;;
61096;SDS011;46977;50.936;6.908;2024-02-21T21:31:13;5.75;;;1.58;;
61096;SDS011;46977;50.936;6.908;2024-02-21T21:34:15;3.78;;;1.35;;
61096;SDS011;46977;50.936;6.908;2024-02-21T21:37:19;2.42;;;1.05;;
61096;SDS011;46977;50.936;6.908;2024-02-21T21:40:22;1.00;;;0.90;;
61096;SDS011;46977;50.936;6.908;2024-02-21T21:43:24;1.83;;;0.90;;
61096;SDS011;46977;50.936;6.908;2024-02-21T21:46:28;1.83;;;0.95;;
61096;SDS011;46977;50.936;6.908;2024-02-21T21:49:31;1.40;;;1.00;;
61096;SDS011;46977;50.936;6.908;2024-02-21T21:52:34;3.20;;;1.20;;
61096;SDS011;46977;50.936;6.908;2024-02-21T21:55:37;3.22;;;1.75;;
61096;SDS011;46977;50.936;6.908;2024-02-21T21:58:40;2.55;;;1.00;;
61096;SDS011;46977;50.936;6.908;2024-02-21T22:01:43;3.72;;;1.48;;
61096;SDS011;46977;50.936;6.908;2024-02-21T22:04:46;4.20;;;1.38;;
61096;SDS011;46977;50.936;6.908;2024-02-21T22:07:48;2.67;;;1.48;;
61096;SDS011;46977;50.936;6.908;2024-02-21T22:10:50;2.60;;;1.20;;
61096;SDS011;46977;50.936;6.908;2024-02-21T22:13:53;2.10;;;1.00;;
61096;SDS011;46977;50.936;6.908;2024-02-21T22:16:57;1.33;;;0.90;;
61096;SDS011;46977;50.936;6.908;2024-02-21T22:19:59;2.05;;;1.15;;
61096;SDS011;46977;50.936;6.908;2024-02-21T22:23:02;1.77;;;0.80;;
61096;SDS011;46977;50.936;6.908;2024-02-21T22:26:04;3.28;;;1.73;;
61096;SDS011;46977;50.936;6.908;2024-02-21T22:29:07;1.58;;;0.90;;
61096;SDS011;46977;50.936;6.908;2024-02-21T22:32:11;1.08;;;0.70;;
61096;SDS011;46977;50.936;6.908;2024-02-21T22:35:13;0.73;;;0.52;;
61096;SDS011;46977;50.936;6.908;2024-02-21T22:38:16;2.72;;;0.90;;
61096;SDS011;46977;50.936;6.908;2024-02-21T22:41:18;1.65;;;0.60;;
61096;SDS011;46977;50.936;6.908;2024-02-21T22:44:21;2.55;;;1.20;;
61096;SDS011;46977;50.936;6.908;2024-02-21T22:47:25;4.07;;;1.75;;
61096;SDS011;46977;50.936;6.908;2024-02-21T22:50:27;5.00;;;1.67;;
61096;SDS011;46977;50.936;6.908;2024-02-21T22:53:29;3.08;;;1.15;;
61096;SDS011;46977;50.936;6.908;2024-02-21T22:56:31;2.88;;;0.85;;
61096;SDS011;46977;50.936;6.908;2024-02-21T22:59:34;2.97;;;0.75;;
61096;SDS011;46977;50.936;6.908;2024-02-21T23:02:37;2.20;;;1.15;;